sensor_id;sensor_type;location;lat;lon;timestamp;P1;durP1;ratioP1;P2;durP2;ratioP2
80123;SDS011;69433;48.642;9.142;2023-06-24T00:00:16;8.85;;;5.57;;
80123;SDS011;69433;48.642;9.142;2023-06-24T00:02:44;6.45;;;5.18;;
80123;SDS011;69433;48.642;9.142;2023-06-24T00:05:10;7.15;;;5.25;;
80123;SDS011;69433;48.642;9.142;2023-06-24T00:07:35;6.78;;;5.00;;
80123;SDS011;69433;48.642;9.142;2023-06-24T00:10:08;7.43;;;5.60;;
80123;SDS011;69433;48.642;9.142;2023-06-24T00:12:34;6.72;;;5.22;;
80123;SDS011;69433;48.642;9.142;2023-06-24T00:15:00;6.93;;;5.35;;
80123;SDS011;69433;48.642;9.142;2023-06-24T00:17:25;7.72;;;5.53;;
80123;SDS011;69433;48.642;9.142;2023-06-24T00:19:53;7.50;;;5.72;;
80123;SDS011;69433;48.642;9.142;2023-06-24T00:22:19;5.97;;;5.00;;
80123;SDS011;69433;48.642;9.142;2023-06-24T00:24:45;8.15;;;5.68;;
80123;SDS011;69433;48.642;9.142;2023-06-24T00:27:10;7.07;;;5.47;;
80123;SDS011;69433;48.642;9.142;2023-06-24T00:29:35;6.97;;;5.38;;
80123;SDS011;69433;48.642;9.142;2023-06-24T00:32:01;7.97;;;5.80;;
80123;SDS011;69433;48.642;9.142;2023-06-24T00:34:26;6.28;;;5.15;;
80123;SDS011;69433;48.642;9.142;2023-06-24T00:36:51;6.32;;;4.85;;
80123;SDS011;69433;48.642;9.142;2023-06-24T00:39:17;7.03;;;4.60;;
80123;SDS011;69433;48.642;9.142;2023-06-24T00:41:42;6.38;;;4.95;;
80123;SDS011;69433;48.642;9.142;2023-06-24T00:44:08;5.95;;;5.03;;
80123;SDS011;69433;48.642;9.142;2023-06-24T00:46:33;6.38;;;4.55;;
80123;SDS011;69433;48.642;9.142;2023-06-24T00:49:00;6.13;;;4.60;;
80123;SDS011;69433;48.642;9.142;2023-06-24T00:51:28;6.93;;;5.35;;
80123;SDS011;69433;48.642;9.142;2023-06-24T00:53:56;6.90;;;5.07;;
80123;SDS011;69433;48.642;9.142;2023-06-24T00:56:25;8.82;;;5.15;;
80123;SDS011;69433;48.642;9.142;2023-06-24T00:58:53;11.50;;;5.45;;
80123;SDS011;69433;48.642;9.142;2023-06-24T01:01:19;7.22;;;4.70;;
80123;SDS011;69433;48.642;9.142;2023-06-24T01:03:45;6.20;;;5.05;;
80123;SDS011;69433;48.642;9.142;2023-06-24T01:06:10;6.45;;;4.97;;
80123;SDS011;69433;48.642;9.142;2023-06-24T01:08:38;6.25;;;4.93;;
80123;SDS011;69433;48.642;9.142;2023-06-24T01:11:03;5.65;;;4.55;;
80123;SDS011;69433;48.642;9.142;2023-06-24T01:13:29;6.20;;;5.07;;
80123;SDS011;69433;48.642;9.142;2023-06-24T01:15:54;6.47;;;4.68;;
80123;SDS011;69433;48.642;9.142;2023-06-24T01:21:12;7.40;;;5.15;;
80123;SDS011;69433;48.642;9.142;2023-06-24T01:26:47;6.22;;;5.22;;
80123;SDS011;69433;48.642;9.142;2023-06-24T01:32:49;5.95;;;5.03;;
80123;SDS011;69433;48.642;9.142;2023-06-24T01:35:20;6.22;;;5.10;;
80123;SDS011;69433;48.642;9.142;2023-06-24T01:37:51;6.35;;;4.95;;
80123;SDS011;69433;48.642;9.142;2023-06-24T01:40:25;6.35;;;4.97;;
80123;SDS011;69433;48.642;9.142;2023-06-24T01:42:53;6.55;;;5.00;;
80123;SDS011;69433;48.642;9.142;2023-06-24T01:45:23;7.32;;;4.88;;
80123;SDS011;69433;48.642;9.142;2023-06-24T01:50:24;6.03;;;5.00;;
80123;SDS011;69433;48.642;9.142;2023-06-24T01:52:50;5.68;;;4.80;;
80123;SDS011;69433;48.642;9.142;2023-06-24T01:55:18;8.05;;;5.00;;
80123;SDS011;69433;48.642;9.142;2023-06-24T01:57:46;6.13;;;4.88;;
80123;SDS011;69433;48.642;9.142;2023-06-24T02:00:14;7.78;;;4.70;;
80123;SDS011;69433;48.642;9.142;2023-06-24T02:02:41;6.78;;;5.25;;
80123;SDS011;69433;48.642;9.142;2023-06-24T02:05:08;6.45;;;4.93;;
80123;SDS011;69433;48.642;9.142;2023-06-24T02:07:34;5.95;;;5.18;;
80123;SDS011;69433;48.642;9.142;2023-06-24T02:10:02;5.65;;;4.90;;
80123;SDS011;69433;48.642;9.142;2023-06-24T02:12:28;6.28;;;4.50;;
80123;SDS011;69433;48.642;9.142;2023-06-24T02:14:54;6.15;;;4.72;;
80123;SDS011;69433;48.642;9.142;2023-06-24T02:17:21;7.10;;;5.45;;
80123;SDS011;69433;48.642;9.142;2023-06-24T02:19:49;6.43;;;4.88;;
80123;SDS011;69433;48.642;9.142;2023-06-24T02:22:16;7.18;;;5.18;;
80123;SDS011;69433;48.642;9.142;2023-06-24T02:24:43;6.60;;;5.10;;
80123;SDS011;69433;48.642;9.142;2023-06-24T02:27:09;7.38;;;5.00;;
80123;SDS011;69433;48.642;9.142;2023-06-24T02:29:36;6.95;;;4.90;;
80123;SDS011;69433;48.642;9.142;2023-06-24T02:32:02;6.22;;;4.82;;
80123;SDS011;69433;48.642;9.142;2023-06-24T02:34:28;5.72;;;4.57;;
80123;SDS011;69433;48.642;9.142;2023-06-24T02:36:54;5.78;;;4.90;;
80123;SDS011;69433;48.642;9.142;2023-06-24T02:39:19;5.72;;;4.90;;
80123;SDS011;69433;48.642;9.142;2023-06-24T02:41:45;6.45;;;5.25;;
80123;SDS011;69433;48.642;9.142;2023-06-24T02:44:12;6.13;;;4.90;;
80123;SDS011;69433;48.642;9.142;2023-06-24T02:46:37;6.88;;;5.07;;
80123;SDS011;69433;48.642;9.142;2023-06-24T02:49:05;6.25;;;5.10;;
80123;SDS011;69433;48.642;9.142;2023-06-24T02:51:31;6.30;;;5.00;;
80123;SDS011;69433;48.642;9.142;2023-06-24T02:53:57;6.47;;;5.10;;
80123;SDS011;69433;48.642;9.142;2023-06-24T02:56:23;5.10;;;4.60;;
80123;SDS011;69433;48.642;9.142;2023-06-24T02:58:49;6.13;;;5.00;;
80123;SDS011;69433;48.642;9.142;2023-06-24T03:01:17;5.47;;;4.38;;
80123;SDS011;69433;48.642;9.142;2023-06-24T03:03:43;6.15;;;5.13;;
80123;SDS011;69433;48.642;9.142;2023-06-24T03:06:14;6.05;;;4.85;;
80123;SDS011;69433;48.642;9.142;2023-06-24T03:08:42;7.18;;;5.15;;
80123;SDS011;69433;48.642;9.142;2023-06-24T03:11:11;8.63;;;4.95;;
80123;SDS011;69433;48.642;9.142;2023-06-24T03:13:38;6.95;;;5.07;;
80123;SDS011;69433;48.642;9.142;2023-06-24T03:16:03;6.30;;;4.80;;
80123;SDS011;69433;48.642;9.142;2023-06-24T03:18:29;6.20;;;4.63;;
80123;SDS011;69433;48.642;9.142;2023-06-24T03:20:54;7.00;;;4.78;;
80123;SDS011;69433;48.642;9.142;2023-06-24T03:23:19;7.68;;;5.15;;
80123;SDS011;69433;48.642;9.142;2023-06-24T03:25:45;6.65;;;4.43;;
80123;SDS011;69433;48.642;9.142;2023-06-24T03:28:10;6.38;;;4.53;;
80123;SDS011;69433;48.642;9.142;2023-06-24T03:30:35;5.75;;;4.82;;
80123;SDS011;69433;48.642;9.142;2023-06-24T03:33:03;6.53;;;4.60;;
80123;SDS011;69433;48.642;9.142;2023-06-24T03:35:28;5.20;;;4.65;;
80123;SDS011;69433;48.642;9.142;2023-06-24T03:37:54;5.88;;;4.95;;
80123;SDS011;69433;48.642;9.142;2023-06-24T03:40:20;6.30;;;4.75;;
80123;SDS011;69433;48.642;9.142;2023-06-24T03:42:45;6.07;;;4.95;;
80123;SDS011;69433;48.642;9.142;2023-06-24T03:45:11;6.60;;;5.05;;
80123;SDS011;69433;48.642;9.142;2023-06-24T03:47:36;8.13;;;4.93;;
80123;SDS011;69433;48.642;9.142;2023-06-24T03:50:02;15.45;;;5.13;;
80123;SDS011;69433;48.642;9.142;2023-06-24T03:52:28;6.40;;;4.90;;
80123;SDS011;69433;48.642;9.142;2023-06-24T03:54:53;6.18;;;4.88;;
80123;SDS011;69433;48.642;9.142;2023-06-24T03:57:18;6.22;;;4.90;;
80123;SDS011;69433;48.642;9.142;2023-06-24T03:59:44;6.35;;;4.80;;
80123;SDS011;69433;48.642;9.142;2023-06-24T04:02:09;6.18;;;4.80;;
80123;SDS011;69433;48.642;9.142;2023-06-24T04:04:35;5.93;;;4.43;;
80123;SDS011;69433;48.642;9.142;2023-06-24T04:07:00;6.30;;;5.03;;
80123;SDS011;69433;48.642;9.142;2023-06-24T04:09:26;6.22;;;4.88;;
80123;SDS011;69433;48.642;9.142;2023-06-24T04:11:51;6.18;;;4.93;;
80123;SDS011;69433;48.642;9.142;2023-06-24T04:14:16;5.50;;;4.50;;
80123;SDS011;69433;48.642;9.142;2023-06-24T04:16:42;6.60;;;5.30;;
80123;SDS011;69433;48.642;9.142;2023-06-24T04:19:07;7.68;;;5.45;;
80123;SDS011;69433;48.642;9.142;2023-06-24T04:21:33;6.75;;;4.80;;
80123;SDS011;69433;48.642;9.142;2023-06-24T04:23:58;5.75;;;4.70;;
80123;SDS011;69433;48.642;9.142;2023-06-24T04:26:23;6.70;;;4.82;;
80123;SDS011;69433;48.642;9.142;2023-06-24T04:28:48;6.25;;;4.75;;
80123;SDS011;69433;48.642;9.142;2023-06-24T04:31:22;6.13;;;4.70;;
80123;SDS011;69433;48.642;9.142;2023-06-24T04:33:47;5.47;;;4.72;;
80123;SDS011;69433;48.642;9.142;2023-06-24T04:36:12;6.63;;;4.70;;
80123;SDS011;69433;48.642;9.142;2023-06-24T04:38:38;6.78;;;5.05;;
80123;SDS011;69433;48.642;9.142;2023-06-24T04:41:03;5.88;;;4.18;;
80123;SDS011;69433;48.642;9.142;2023-06-24T04:43:29;8.30;;;4.85;;
80123;SDS011;69433;48.642;9.142;2023-06-24T04:45:54;5.80;;;4.70;;
80123;SDS011;69433;48.642;9.142;2023-06-24T04:48:23;8.63;;;4.43;;
80123;SDS011;69433;48.642;9.142;2023-06-24T04:50:49;7.68;;;4.55;;
80123;SDS011;69433;48.642;9.142;2023-06-24T04:53:14;8.43;;;4.38;;
80123;SDS011;69433;48.642;9.142;2023-06-24T04:55:39;7.05;;;4.05;;
80123;SDS011;69433;48.642;9.142;2023-06-24T04:58:05;10.02;;;5.03;;
80123;SDS011;69433;48.642;9.142;2023-06-24T05:00:30;6.18;;;4.35;;
80123;SDS011;69433;48.642;9.142;2023-06-24T05:02:56;9.35;;;4.85;;
80123;SDS011;69433;48.642;9.142;2023-06-24T05:05:21;7.60;;;5.07;;
80123;SDS011;69433;48.642;9.142;2023-06-24T05:07:46;9.20;;;4.55;;
80123;SDS011;69433;48.642;9.142;2023-06-24T05:10:12;8.65;;;4.57;;
80123;SDS011;69433;48.642;9.142;2023-06-24T05:12:37;9.57;;;4.70;;
80123;SDS011;69433;48.642;9.142;2023-06-24T05:15:02;7.07;;;4.22;;
80123;SDS011;69433;48.642;9.142;2023-06-24T05:17:28;6.85;;;4.47;;
80123;SDS011;69433;48.642;9.142;2023-06-24T05:19:53;7.78;;;4.57;;
80123;SDS011;69433;48.642;9.142;2023-06-24T05:22:19;6.32;;;4.20;;
80123;SDS011;69433;48.642;9.142;2023-06-24T05:24:44;12.15;;;4.60;;
80123;SDS011;69433;48.642;9.142;2023-06-24T05:27:09;6.57;;;4.55;;
80123;SDS011;69433;48.642;9.142;2023-06-24T05:29:34;8.13;;;4.45;;
80123;SDS011;69433;48.642;9.142;2023-06-24T05:32:00;6.65;;;4.80;;
80123;SDS011;69433;48.642;9.142;2023-06-24T05:34:28;7.32;;;4.38;;
80123;SDS011;69433;48.642;9.142;2023-06-24T05:36:53;6.20;;;4.70;;
80123;SDS011;69433;48.642;9.142;2023-06-24T05:39:19;9.63;;;4.68;;
80123;SDS011;69433;48.642;9.142;2023-06-24T05:41:45;6.25;;;4.40;;
80123;SDS011;69433;48.642;9.142;2023-06-24T05:44:10;7.68;;;4.72;;
80123;SDS011;69433;48.642;9.142;2023-06-24T05:46:36;6.57;;;4.63;;
80123;SDS011;69433;48.642;9.142;2023-06-24T05:49:02;10.02;;;4.43;;
80123;SDS011;69433;48.642;9.142;2023-06-24T05:51:27;5.93;;;4.20;;
80123;SDS011;69433;48.642;9.142;2023-06-24T05:53:53;5.90;;;4.30;;
80123;SDS011;69433;48.642;9.142;2023-06-24T05:56:19;5.65;;;4.30;;
80123;SDS011;69433;48.642;9.142;2023-06-24T05:58:46;6.90;;;4.03;;
80123;SDS011;69433;48.642;9.142;2023-06-24T06:01:11;8.25;;;4.32;;
80123;SDS011;69433;48.642;9.142;2023-06-24T06:03:37;6.63;;;4.38;;
80123;SDS011;69433;48.642;9.142;2023-06-24T06:06:02;5.57;;;3.90;;
80123;SDS011;69433;48.642;9.142;2023-06-24T06:08:28;5.65;;;4.00;;
80123;SDS011;69433;48.642;9.142;2023-06-24T06:10:53;8.73;;;4.88;;
80123;SDS011;69433;48.642;9.142;2023-06-24T06:13:18;7.05;;;4.40;;
80123;SDS011;69433;48.642;9.142;2023-06-24T06:15:44;5.97;;;4.40;;
80123;SDS011;69433;48.642;9.142;2023-06-24T06:18:09;5.63;;;4.18;;
80123;SDS011;69433;48.642;9.142;2023-06-24T06:20:34;5.68;;;3.78;;
80123;SDS011;69433;48.642;9.142;2023-06-24T06:23:00;8.10;;;4.35;;
80123;SDS011;69433;48.642;9.142;2023-06-24T06:25:25;6.70;;;4.45;;
80123;SDS011;69433;48.642;9.142;2023-06-24T06:27:50;6.00;;;3.80;;
80123;SDS011;69433;48.642;9.142;2023-06-24T06:30:15;5.38;;;4.07;;
80123;SDS011;69433;48.642;9.142;2023-06-24T06:32:41;5.65;;;3.95;;
80123;SDS011;69433;48.642;9.142;2023-06-24T06:35:06;6.22;;;4.15;;
80123;SDS011;69433;48.642;9.142;2023-06-24T06:37:32;4.88;;;4.10;;
80123;SDS011;69433;48.642;9.142;2023-06-24T06:39:57;5.47;;;4.85;;
80123;SDS011;69433;48.642;9.142;2023-06-24T06:42:22;4.90;;;4.28;;
80123;SDS011;69433;48.642;9.142;2023-06-24T06:44:48;5.50;;;4.35;;
80123;SDS011;69433;48.642;9.142;2023-06-24T06:47:13;5.22;;;3.95;;
80123;SDS011;69433;48.642;9.142;2023-06-24T06:49:38;5.40;;;4.03;;
80123;SDS011;69433;48.642;9.142;2023-06-24T06:52:04;5.35;;;4.13;;
80123;SDS011;69433;48.642;9.142;2023-06-24T06:54:30;5.80;;;4.10;;
80123;SDS011;69433;48.642;9.142;2023-06-24T06:56:59;5.70;;;4.40;;
80123;SDS011;69433;48.642;9.142;2023-06-24T06:59:30;5.25;;;3.88;;
80123;SDS011;69433;48.642;9.142;2023-06-24T07:01:56;5.45;;;4.10;;
80123;SDS011;69433;48.642;9.142;2023-06-24T07:04:21;4.68;;;4.13;;
80123;SDS011;69433;48.642;9.142;2023-06-24T07:06:47;4.57;;;3.70;;
80123;SDS011;69433;48.642;9.142;2023-06-24T07:09:13;5.88;;;3.72;;
80123;SDS011;69433;48.642;9.142;2023-06-24T07:11:38;5.65;;;3.70;;
80123;SDS011;69433;48.642;9.142;2023-06-24T07:14:03;6.03;;;4.05;;
80123;SDS011;69433;48.642;9.142;2023-06-24T07:16:28;5.35;;;3.90;;
80123;SDS011;69433;48.642;9.142;2023-06-24T07:18:56;5.68;;;3.83;;
80123;SDS011;69433;48.642;9.142;2023-06-24T07:21:21;7.05;;;4.13;;
80123;SDS011;69433;48.642;9.142;2023-06-24T07:23:47;4.28;;;3.60;;
80123;SDS011;69433;48.642;9.142;2023-06-24T07:26:12;6.20;;;3.80;;
80123;SDS011;69433;48.642;9.142;2023-06-24T07:28:38;5.28;;;3.88;;
80123;SDS011;69433;48.642;9.142;2023-06-24T07:31:03;5.00;;;3.95;;
80123;SDS011;69433;48.642;9.142;2023-06-24T07:33:28;5.15;;;3.92;;
80123;SDS011;69433;48.642;9.142;2023-06-24T07:35:55;5.65;;;3.75;;
80123;SDS011;69433;48.642;9.142;2023-06-24T07:38:20;4.65;;;3.53;;
80123;SDS011;69433;48.642;9.142;2023-06-24T07:40:46;4.60;;;3.83;;
80123;SDS011;69433;48.642;9.142;2023-06-24T07:43:11;6.15;;;3.90;;
80123;SDS011;69433;48.642;9.142;2023-06-24T07:45:36;8.10;;;3.80;;
80123;SDS011;69433;48.642;9.142;2023-06-24T07:48:02;6.03;;;3.60;;
80123;SDS011;69433;48.642;9.142;2023-06-24T07:50:27;4.72;;;3.90;;
80123;SDS011;69433;48.642;9.142;2023-06-24T07:52:52;5.60;;;3.97;;
80123;SDS011;69433;48.642;9.142;2023-06-24T07:55:18;7.45;;;3.72;;
80123;SDS011;69433;48.642;9.142;2023-06-24T07:57:46;4.43;;;3.75;;
80123;SDS011;69433;48.642;9.142;2023-06-24T08:00:12;5.25;;;3.83;;
80123;SDS011;69433;48.642;9.142;2023-06-24T08:02:38;5.28;;;4.40;;
80123;SDS011;69433;48.642;9.142;2023-06-24T08:05:03;4.95;;;3.53;;
80123;SDS011;69433;48.642;9.142;2023-06-24T08:07:29;4.70;;;3.58;;
80123;SDS011;69433;48.642;9.142;2023-06-24T08:09:54;4.95;;;3.80;;
80123;SDS011;69433;48.642;9.142;2023-06-24T08:12:20;4.70;;;3.60;;
80123;SDS011;69433;48.642;9.142;2023-06-24T08:14:45;4.50;;;3.70;;
80123;SDS011;69433;48.642;9.142;2023-06-24T08:17:11;5.25;;;3.85;;
80123;SDS011;69433;48.642;9.142;2023-06-24T08:19:36;4.50;;;3.60;;
80123;SDS011;69433;48.642;9.142;2023-06-24T08:22:01;4.50;;;3.80;;
80123;SDS011;69433;48.642;9.142;2023-06-24T08:24:27;5.18;;;3.65;;
80123;SDS011;69433;48.642;9.142;2023-06-24T08:26:52;4.72;;;3.75;;
80123;SDS011;69433;48.642;9.142;2023-06-24T08:29:18;4.68;;;3.47;;
80123;SDS011;69433;48.642;9.142;2023-06-24T08:31:43;5.13;;;3.60;;
80123;SDS011;69433;48.642;9.142;2023-06-24T08:34:09;4.10;;;3.53;;
80123;SDS011;69433;48.642;9.142;2023-06-24T08:36:34;5.13;;;3.83;;
80123;SDS011;69433;48.642;9.142;2023-06-24T08:39:01;4.55;;;3.67;;
80123;SDS011;69433;48.642;9.142;2023-06-24T08:41:26;4.25;;;3.58;;
80123;SDS011;69433;48.642;9.142;2023-06-24T08:43:53;4.75;;;3.40;;
80123;SDS011;69433;48.642;9.142;2023-06-24T08:46:21;4.47;;;3.75;;
80123;SDS011;69433;48.642;9.142;2023-06-24T08:48:49;4.55;;;3.42;;
80123;SDS011;69433;48.642;9.142;2023-06-24T08:51:32;4.50;;;3.38;;
80123;SDS011;69433;48.642;9.142;2023-06-24T08:54:03;5.32;;;3.28;;
80123;SDS011;69433;48.642;9.142;2023-06-24T08:56:32;4.43;;;3.30;;
80123;SDS011;69433;48.642;9.142;2023-06-24T08:58:57;5.03;;;3.47;;
80123;SDS011;69433;48.642;9.142;2023-06-24T09:01:23;4.43;;;3.53;;
80123;SDS011;69433;48.642;9.142;2023-06-24T09:03:51;5.40;;;3.72;;
80123;SDS011;69433;48.642;9.142;2023-06-24T09:06:16;4.15;;;3.40;;
80123;SDS011;69433;48.642;9.142;2023-06-24T09:08:51;4.75;;;3.72;;
80123;SDS011;69433;48.642;9.142;2023-06-24T09:11:21;3.97;;;3.20;;
80123;SDS011;69433;48.642;9.142;2023-06-24T09:13:47;4.68;;;3.20;;
80123;SDS011;69433;48.642;9.142;2023-06-24T09:16:13;4.43;;;3.40;;
80123;SDS011;69433;48.642;9.142;2023-06-24T09:18:39;4.47;;;3.42;;
80123;SDS011;69433;48.642;9.142;2023-06-24T09:21:05;4.30;;;3.35;;
80123;SDS011;69433;48.642;9.142;2023-06-24T09:23:37;5.07;;;3.40;;
80123;SDS011;69433;48.642;9.142;2023-06-24T09:26:02;5.00;;;3.50;;
80123;SDS011;69433;48.642;9.142;2023-06-24T09:28:27;4.45;;;3.50;;
80123;SDS011;69433;48.642;9.142;2023-06-24T09:31:05;4.10;;;3.50;;
80123;SDS011;69433;48.642;9.142;2023-06-24T09:33:32;5.70;;;3.60;;
80123;SDS011;69433;48.642;9.142;2023-06-24T09:35:57;4.20;;;3.70;;
80123;SDS011;69433;48.642;9.142;2023-06-24T09:38:35;4.95;;;3.53;;
80123;SDS011;69433;48.642;9.142;2023-06-24T09:41:02;3.83;;;3.15;;
80123;SDS011;69433;48.642;9.142;2023-06-24T09:43:34;5.95;;;3.17;;
80123;SDS011;69433;48.642;9.142;2023-06-24T09:46:09;4.95;;;3.53;;
80123;SDS011;69433;48.642;9.142;2023-06-24T09:48:35;4.45;;;3.40;;
80123;SDS011;69433;48.642;9.142;2023-06-24T09:51:02;4.78;;;3.30;;
80123;SDS011;69433;48.642;9.142;2023-06-24T09:53:33;4.20;;;3.50;;
80123;SDS011;69433;48.642;9.142;2023-06-24T09:56:00;4.03;;;3.40;;
80123;SDS011;69433;48.642;9.142;2023-06-24T09:58:30;3.90;;;3.30;;
80123;SDS011;69433;48.642;9.142;2023-06-24T10:00:59;4.22;;;3.55;;
80123;SDS011;69433;48.642;9.142;2023-06-24T10:03:27;3.95;;;3.30;;
80123;SDS011;69433;48.642;9.142;2023-06-24T10:05:53;4.15;;;3.35;;
80123;SDS011;69433;48.642;9.142;2023-06-24T10:08:20;3.88;;;3.33;;
80123;SDS011;69433;48.642;9.142;2023-06-24T10:10:45;4.65;;;3.78;;
80123;SDS011;69433;48.642;9.142;2023-06-24T10:13:11;4.65;;;3.40;;
80123;SDS011;69433;48.642;9.142;2023-06-24T10:15:36;4.80;;;3.15;;
80123;SDS011;69433;48.642;9.142;2023-06-24T10:18:02;3.63;;;3.20;;
80123;SDS011;69433;48.642;9.142;2023-06-24T10:20:28;4.22;;;3.58;;
80123;SDS011;69433;48.642;9.142;2023-06-24T10:22:53;3.53;;;3.00;;
80123;SDS011;69433;48.642;9.142;2023-06-24T10:25:19;4.40;;;2.90;;
80123;SDS011;69433;48.642;9.142;2023-06-24T10:27:46;4.72;;;3.70;;
80123;SDS011;69433;48.642;9.142;2023-06-24T10:30:19;4.75;;;3.35;;
80123;SDS011;69433;48.642;9.142;2023-06-24T10:32:45;4.07;;;3.10;;
80123;SDS011;69433;48.642;9.142;2023-06-24T10:35:21;3.65;;;3.05;;
80123;SDS011;69433;48.642;9.142;2023-06-24T10:37:53;4.03;;;3.28;;
80123;SDS011;69433;48.642;9.142;2023-06-24T10:45:51;3.80;;;3.22;;
80123;SDS011;69433;48.642;9.142;2023-06-24T10:48:18;4.93;;;3.53;;
80123;SDS011;69433;48.642;9.142;2023-06-24T10:50:48;6.30;;;3.40;;
80123;SDS011;69433;48.642;9.142;2023-06-24T10:53:17;4.38;;;3.50;;
80123;SDS011;69433;48.642;9.142;2023-06-24T10:55:45;4.25;;;3.30;;
80123;SDS011;69433;48.642;9.142;2023-06-24T10:58:12;4.45;;;3.35;;
80123;SDS011;69433;48.642;9.142;2023-06-24T11:00:40;4.50;;;3.20;;
80123;SDS011;69433;48.642;9.142;2023-06-24T11:03:10;4.55;;;3.10;;
80123;SDS011;69433;48.642;9.142;2023-06-24T11:05:40;3.55;;;3.00;;
80123;SDS011;69433;48.642;9.142;2023-06-24T11:08:06;3.85;;;3.17;;
80123;SDS011;69433;48.642;9.142;2023-06-24T11:10:44;4.28;;;3.17;;
80123;SDS011;69433;48.642;9.142;2023-06-24T11:13:11;5.00;;;3.55;;
80123;SDS011;69433;48.642;9.142;2023-06-24T11:15:37;4.43;;;3.25;;
80123;SDS011;69433;48.642;9.142;2023-06-24T11:18:07;3.63;;;2.97;;
80123;SDS011;69433;48.642;9.142;2023-06-24T11:20:38;3.78;;;3.20;;
80123;SDS011;69433;48.642;9.142;2023-06-24T11:23:08;3.53;;;2.80;;
80123;SDS011;69433;48.642;9.142;2023-06-24T11:25:38;4.07;;;3.30;;
80123;SDS011;69433;48.642;9.142;2023-06-24T11:28:05;4.53;;;3.17;;
80123;SDS011;69433;48.642;9.142;2023-06-24T11:30:33;4.80;;;3.20;;
80123;SDS011;69433;48.642;9.142;2023-06-24T11:32:59;4.35;;;3.15;;
80123;SDS011;69433;48.642;9.142;2023-06-24T11:35:24;4.03;;;3.05;;
80123;SDS011;69433;48.642;9.142;2023-06-24T11:37:50;4.15;;;3.08;;
80123;SDS011;69433;48.642;9.142;2023-06-24T11:40:16;4.00;;;3.10;;
80123;SDS011;69433;48.642;9.142;2023-06-24T11:42:44;4.68;;;3.42;;
80123;SDS011;69433;48.642;9.142;2023-06-24T11:45:10;4.03;;;3.25;;
80123;SDS011;69433;48.642;9.142;2023-06-24T11:47:37;4.15;;;3.17;;
80123;SDS011;69433;48.642;9.142;2023-06-24T11:50:05;3.15;;;2.72;;
80123;SDS011;69433;48.642;9.142;2023-06-24T11:52:47;4.30;;;3.20;;
80123;SDS011;69433;48.642;9.142;2023-06-24T11:55:20;3.70;;;2.85;;
80123;SDS011;69433;48.642;9.142;2023-06-24T11:57:52;3.40;;;2.90;;
80123;SDS011;69433;48.642;9.142;2023-06-24T12:01:02;3.22;;;2.80;;
80123;SDS011;69433;48.642;9.142;2023-06-24T12:03:10;4.60;;;3.15;;
80123;SDS011;69433;48.642;9.142;2023-06-24T12:05:37;4.85;;;3.00;;
80123;SDS011;69433;48.642;9.142;2023-06-24T12:08:05;3.85;;;3.03;;
80123;SDS011;69433;48.642;9.142;2023-06-24T12:10:32;3.95;;;3.20;;
80123;SDS011;69433;48.642;9.142;2023-06-24T12:12:59;3.28;;;2.75;;
80123;SDS011;69433;48.642;9.142;2023-06-24T12:15:25;3.70;;;3.20;;
80123;SDS011;69433;48.642;9.142;2023-06-24T12:17:51;3.70;;;3.10;;
80123;SDS011;69433;48.642;9.142;2023-06-24T12:20:17;3.78;;;3.08;;
80123;SDS011;69433;48.642;9.142;2023-06-24T12:22:43;3.58;;;3.13;;
80123;SDS011;69433;48.642;9.142;2023-06-24T12:25:09;3.30;;;2.80;;
80123;SDS011;69433;48.642;9.142;2023-06-24T12:27:35;4.13;;;3.25;;
80123;SDS011;69433;48.642;9.142;2023-06-24T12:30:00;3.65;;;3.20;;
80123;SDS011;69433;48.642;9.142;2023-06-24T12:32:28;3.92;;;3.20;;
80123;SDS011;69433;48.642;9.142;2023-06-24T12:34:54;3.80;;;3.30;;
80123;SDS011;69433;48.642;9.142;2023-06-24T12:37:19;3.88;;;3.00;;
80123;SDS011;69433;48.642;9.142;2023-06-24T12:39:44;3.95;;;3.35;;
80123;SDS011;69433;48.642;9.142;2023-06-24T12:42:10;3.50;;;2.90;;
80123;SDS011;69433;48.642;9.142;2023-06-24T12:44:35;4.32;;;3.05;;
80123;SDS011;69433;48.642;9.142;2023-06-24T12:47:01;3.92;;;3.03;;
80123;SDS011;69433;48.642;9.142;2023-06-24T12:49:27;3.60;;;2.85;;
80123;SDS011;69433;48.642;9.142;2023-06-24T12:51:53;4.03;;;2.80;;
80123;SDS011;69433;48.642;9.142;2023-06-24T12:54:18;4.15;;;3.15;;
80123;SDS011;69433;48.642;9.142;2023-06-24T12:56:43;3.15;;;2.78;;
80123;SDS011;69433;48.642;9.142;2023-06-24T12:59:08;3.97;;;2.97;;
80123;SDS011;69433;48.642;9.142;2023-06-24T13:01:34;3.97;;;2.88;;
80123;SDS011;69433;48.642;9.142;2023-06-24T13:03:59;3.80;;;3.00;;
80123;SDS011;69433;48.642;9.142;2023-06-24T13:06:24;3.78;;;2.92;;
80123;SDS011;69433;48.642;9.142;2023-06-24T13:08:50;3.53;;;2.90;;
80123;SDS011;69433;48.642;9.142;2023-06-24T13:11:15;3.80;;;2.92;;
80123;SDS011;69433;48.642;9.142;2023-06-24T13:13:40;4.15;;;3.42;;
80123;SDS011;69433;48.642;9.142;2023-06-24T13:16:06;4.45;;;2.90;;
80123;SDS011;69433;48.642;9.142;2023-06-24T13:18:31;3.65;;;2.85;;
80123;SDS011;69433;48.642;9.142;2023-06-24T13:20:56;3.88;;;3.15;;
80123;SDS011;69433;48.642;9.142;2023-06-24T13:23:21;3.83;;;3.08;;
80123;SDS011;69433;48.642;9.142;2023-06-24T13:25:47;3.47;;;2.80;;
80123;SDS011;69433;48.642;9.142;2023-06-24T13:28:12;3.75;;;3.05;;
80123;SDS011;69433;48.642;9.142;2023-06-24T13:30:38;3.75;;;3.05;;
80123;SDS011;69433;48.642;9.142;2023-06-24T13:33:03;3.97;;;2.88;;
80123;SDS011;69433;48.642;9.142;2023-06-24T13:35:28;3.60;;;3.05;;
80123;SDS011;69433;48.642;9.142;2023-06-24T13:37:54;3.58;;;2.95;;
80123;SDS011;69433;48.642;9.142;2023-06-24T13:40:19;3.60;;;2.95;;
80123;SDS011;69433;48.642;9.142;2023-06-24T13:42:44;4.10;;;3.25;;
80123;SDS011;69433;48.642;9.142;2023-06-24T13:45:10;3.22;;;2.70;;
80123;SDS011;69433;48.642;9.142;2023-06-24T13:47:35;3.63;;;3.10;;
80123;SDS011;69433;48.642;9.142;2023-06-24T13:50:02;3.92;;;2.90;;
80123;SDS011;69433;48.642;9.142;2023-06-24T13:52:28;3.72;;;2.85;;
80123;SDS011;69433;48.642;9.142;2023-06-24T13:54:53;3.42;;;2.92;;
80123;SDS011;69433;48.642;9.142;2023-06-24T13:57:19;3.15;;;2.80;;
80123;SDS011;69433;48.642;9.142;2023-06-24T13:59:44;3.83;;;3.03;;
80123;SDS011;69433;48.642;9.142;2023-06-24T14:02:09;3.78;;;3.03;;
80123;SDS011;69433;48.642;9.142;2023-06-24T14:04:36;4.43;;;3.05;;
80123;SDS011;69433;48.642;9.142;2023-06-24T14:07:02;3.85;;;3.15;;
80123;SDS011;69433;48.642;9.142;2023-06-24T14:09:30;4.60;;;3.20;;
80123;SDS011;69433;48.642;9.142;2023-06-24T14:11:56;3.97;;;2.83;;
80123;SDS011;69433;48.642;9.142;2023-06-24T14:14:21;3.53;;;2.88;;
80123;SDS011;69433;48.642;9.142;2023-06-24T14:16:46;4.68;;;3.03;;
80123;SDS011;69433;48.642;9.142;2023-06-24T14:19:12;3.88;;;3.20;;
80123;SDS011;69433;48.642;9.142;2023-06-24T14:21:37;3.17;;;2.88;;
80123;SDS011;69433;48.642;9.142;2023-06-24T14:24:03;3.40;;;2.72;;
80123;SDS011;69433;48.642;9.142;2023-06-24T14:26:30;3.60;;;2.70;;
80123;SDS011;69433;48.642;9.142;2023-06-24T14:28:55;3.90;;;3.00;;
80123;SDS011;69433;48.642;9.142;2023-06-24T14:31:20;4.32;;;3.05;;
80123;SDS011;69433;48.642;9.142;2023-06-24T14:33:46;3.17;;;2.58;;
80123;SDS011;69433;48.642;9.142;2023-06-24T14:36:11;3.95;;;3.10;;
80123;SDS011;69433;48.642;9.142;2023-06-24T14:38:36;3.42;;;2.78;;
80123;SDS011;69433;48.642;9.142;2023-06-24T14:41:02;4.20;;;3.42;;
80123;SDS011;69433;48.642;9.142;2023-06-24T14:43:27;3.78;;;3.25;;
80123;SDS011;69433;48.642;9.142;2023-06-24T14:45:52;3.20;;;2.70;;
80123;SDS011;69433;48.642;9.142;2023-06-24T14:48:17;3.50;;;2.92;;
80123;SDS011;69433;48.642;9.142;2023-06-24T14:50:45;3.45;;;2.83;;
80123;SDS011;69433;48.642;9.142;2023-06-24T14:53:11;3.15;;;2.78;;
80123;SDS011;69433;48.642;9.142;2023-06-24T14:55:36;3.45;;;2.97;;
80123;SDS011;69433;48.642;9.142;2023-06-24T14:58:01;4.35;;;3.25;;
80123;SDS011;69433;48.642;9.142;2023-06-24T15:00:26;3.25;;;2.60;;